sensor_id;sensor_type;location;lat;lon;timestamp;P1;durP1;ratioP1;P2;durP2;ratioP2
4738;SDS011;2383;48.632;10.156;2022-08-19T00:03:40;15.23;;;13.50;;
4738;SDS011;2383;48.632;10.156;2022-08-19T00:07:42;14.85;;;13.20;;
4738;SDS011;2383;48.632;10.156;2022-08-19T00:11:44;16.13;;;14.60;;
4738;SDS011;2383;48.632;10.156;2022-08-19T00:15:47;15.82;;;14.27;;
4738;SDS011;2383;48.632;10.156;2022-08-19T00:19:48;15.07;;;13.32;;
4738;SDS011;2383;48.632;10.156;2022-08-19T00:23:50;16.13;;;14.52;;
4738;SDS011;2383;48.632;10.156;2022-08-19T00:27:52;15.70;;;14.20;;
4738;SDS011;2383;48.632;10.156;2022-08-19T00:31:54;16.90;;;15.25;;
4738;SDS011;2383;48.632;10.156;2022-08-19T00:35:58;16.45;;;14.88;;
4738;SDS011;2383;48.632;10.156;2022-08-19T00:40:02;17.30;;;15.57;;
4738;SDS011;2383;48.632;10.156;2022-08-19T00:44:10;17.92;;;15.90;;
4738;SDS011;2383;48.632;10.156;2022-08-19T00:48:15;17.67;;;15.93;;
4738;SDS011;2383;48.632;10.156;2022-08-19T00:52:20;17.85;;;15.85;;
4738;SDS011;2383;48.632;10.156;2022-08-19T00:56:30;17.75;;;15.95;;
4738;SDS011;2383;48.632;10.156;2022-08-19T01:00:32;19.58;;;17.55;;
4738;SDS011;2383;48.632;10.156;2022-08-19T01:04:37;20.73;;;17.83;;
4738;SDS011;2383;48.632;10.156;2022-08-19T01:08:39;20.98;;;18.77;;
4738;SDS011;2383;48.632;10.156;2022-08-19T01:12:41;22.35;;;20.02;;
4738;SDS011;2383;48.632;10.156;2022-08-19T01:16:43;23.85;;;21.38;;
4738;SDS011;2383;48.632;10.156;2022-08-19T01:20:48;22.17;;;19.92;;
4738;SDS011;2383;48.632;10.156;2022-08-19T01:24:50;22.08;;;19.67;;
4738;SDS011;2383;48.632;10.156;2022-08-19T01:28:56;24.27;;;21.77;;
4738;SDS011;2383;48.632;10.156;2022-08-19T01:33:01;24.13;;;21.65;;
4738;SDS011;2383;48.632;10.156;2022-08-19T01:37:07;26.63;;;22.92;;
4738;SDS011;2383;48.632;10.156;2022-08-19T01:41:12;27.83;;;24.95;;
4738;SDS011;2383;48.632;10.156;2022-08-19T01:45:14;27.85;;;24.88;;
4738;SDS011;2383;48.632;10.156;2022-08-19T01:49:17;30.25;;;27.15;;
4738;SDS011;2383;48.632;10.156;2022-08-19T01:53:20;31.95;;;28.52;;
4738;SDS011;2383;48.632;10.156;2022-08-19T01:57:26;31.60;;;28.40;;
4738;SDS011;2383;48.632;10.156;2022-08-19T02:01:28;34.33;;;29.63;;
4738;SDS011;2383;48.632;10.156;2022-08-19T02:05:33;34.42;;;30.70;;
4738;SDS011;2383;48.632;10.156;2022-08-19T02:09:34;34.58;;;30.00;;
4738;SDS011;2383;48.632;10.156;2022-08-19T02:13:36;35.45;;;29.63;;
4738;SDS011;2383;48.632;10.156;2022-08-19T02:17:38;34.35;;;29.40;;
4738;SDS011;2383;48.632;10.156;2022-08-19T02:21:40;34.35;;;29.50;;
4738;SDS011;2383;48.632;10.156;2022-08-19T02:25:43;35.53;;;29.35;;
4738;SDS011;2383;48.632;10.156;2022-08-19T02:29:47;35.97;;;30.15;;
4738;SDS011;2383;48.632;10.156;2022-08-19T02:33:50;39.03;;;30.58;;
4738;SDS011;2383;48.632;10.156;2022-08-19T02:37:56;36.55;;;31.35;;
4738;SDS011;2383;48.632;10.156;2022-08-19T02:42:17;37.72;;;31.55;;
4738;SDS011;2383;48.632;10.156;2022-08-19T02:46:20;37.47;;;32.67;;
4738;SDS011;2383;48.632;10.156;2022-08-19T02:50:23;38.53;;;31.73;;
4738;SDS011;2383;48.632;10.156;2022-08-19T02:54:25;38.13;;;31.48;;
4738;SDS011;2383;48.632;10.156;2022-08-19T02:58:28;34.75;;;30.65;;
4738;SDS011;2383;48.632;10.156;2022-08-19T03:02:30;40.70;;;33.35;;
4738;SDS011;2383;48.632;10.156;2022-08-19T03:06:32;39.47;;;30.95;;
4738;SDS011;2383;48.632;10.156;2022-08-19T03:10:42;37.50;;;32.00;;
4738;SDS011;2383;48.632;10.156;2022-08-19T03:14:48;36.58;;;30.98;;
4738;SDS011;2383;48.632;10.156;2022-08-19T03:18:50;40.40;;;32.58;;
4738;SDS011;2383;48.632;10.156;2022-08-19T03:22:52;41.60;;;34.10;;
4738;SDS011;2383;48.632;10.156;2022-08-19T03:26:54;40.25;;;33.50;;
4738;SDS011;2383;48.632;10.156;2022-08-19T03:30:59;37.15;;;32.03;;
4738;SDS011;2383;48.632;10.156;2022-08-19T03:35:04;37.17;;;31.65;;
4738;SDS011;2383;48.632;10.156;2022-08-19T03:39:07;36.05;;;31.40;;
4738;SDS011;2383;48.632;10.156;2022-08-19T03:43:09;34.78;;;29.33;;
4738;SDS011;2383;48.632;10.156;2022-08-19T03:47:11;34.03;;;28.85;;
4738;SDS011;2383;48.632;10.156;2022-08-19T03:51:18;39.33;;;28.45;;
4738;SDS011;2383;48.632;10.156;2022-08-19T03:55:31;33.78;;;29.48;;
4738;SDS011;2383;48.632;10.156;2022-08-19T03:59:34;34.72;;;28.67;;
4738;SDS011;2383;48.632;10.156;2022-08-19T04:03:38;35.90;;;28.73;;
4738;SDS011;2383;48.632;10.156;2022-08-19T04:07:41;32.60;;;28.33;;
4738;SDS011;2383;48.632;10.156;2022-08-19T04:11:44;34.67;;;28.67;;
4738;SDS011;2383;48.632;10.156;2022-08-19T04:15:51;32.95;;;26.92;;
4738;SDS011;2383;48.632;10.156;2022-08-19T04:19:54;34.05;;;27.98;;
4738;SDS011;2383;48.632;10.156;2022-08-19T04:23:56;31.20;;;26.65;;
4738;SDS011;2383;48.632;10.156;2022-08-19T04:27:58;30.15;;;26.60;;
4738;SDS011;2383;48.632;10.156;2022-08-19T04:32:01;34.60;;;27.95;;
4738;SDS011;2383;48.632;10.156;2022-08-19T04:36:20;33.85;;;27.23;;
4738;SDS011;2383;48.632;10.156;2022-08-19T04:40:23;32.58;;;28.35;;
4738;SDS011;2383;48.632;10.156;2022-08-19T04:44:43;34.38;;;27.15;;
4738;SDS011;2383;48.632;10.156;2022-08-19T04:48:46;32.47;;;26.75;;
4738;SDS011;2383;48.632;10.156;2022-08-19T04:52:50;35.83;;;27.48;;
4738;SDS011;2383;48.632;10.156;2022-08-19T04:56:52;31.88;;;26.33;;
4738;SDS011;2383;48.632;10.156;2022-08-19T05:00:55;35.92;;;27.30;;
4738;SDS011;2383;48.632;10.156;2022-08-19T05:04:57;33.28;;;27.88;;
4738;SDS011;2383;48.632;10.156;2022-08-19T05:09:04;36.80;;;28.75;;
4738;SDS011;2383;48.632;10.156;2022-08-19T05:13:06;34.13;;;26.55;;
4738;SDS011;2383;48.632;10.156;2022-08-19T05:17:11;30.95;;;26.80;;
4738;SDS011;2383;48.632;10.156;2022-08-19T05:21:28;35.20;;;28.30;;
4738;SDS011;2383;48.632;10.156;2022-08-19T05:25:50;38.17;;;29.55;;
4738;SDS011;2383;48.632;10.156;2022-08-19T05:29:53;33.13;;;27.30;;
4738;SDS011;2383;48.632;10.156;2022-08-19T05:33:55;37.80;;;28.75;;
4738;SDS011;2383;48.632;10.156;2022-08-19T05:37:59;34.33;;;27.30;;
4738;SDS011;2383;48.632;10.156;2022-08-19T05:42:02;31.50;;;26.85;;
4738;SDS011;2383;48.632;10.156;2022-08-19T05:46:13;34.78;;;27.90;;
4738;SDS011;2383;48.632;10.156;2022-08-19T05:50:28;32.33;;;26.88;;
4738;SDS011;2383;48.632;10.156;2022-08-19T05:54:31;35.35;;;28.15;;
4738;SDS011;2383;48.632;10.156;2022-08-19T05:58:34;37.03;;;29.70;;
4738;SDS011;2383;48.632;10.156;2022-08-19T06:02:36;34.63;;;27.65;;
4738;SDS011;2383;48.632;10.156;2022-08-19T06:06:38;33.95;;;28.27;;
4738;SDS011;2383;48.632;10.156;2022-08-19T06:10:40;38.40;;;28.45;;
4738;SDS011;2383;48.632;10.156;2022-08-19T06:14:42;33.42;;;26.05;;
4738;SDS011;2383;48.632;10.156;2022-08-19T06:18:44;37.33;;;28.52;;
4738;SDS011;2383;48.632;10.156;2022-08-19T06:22:47;33.65;;;27.88;;
4738;SDS011;2383;48.632;10.156;2022-08-19T06:26:54;39.40;;;29.50;;
4738;SDS011;2383;48.632;10.156;2022-08-19T06:31:05;35.30;;;28.70;;
4738;SDS011;2383;48.632;10.156;2022-08-19T06:35:08;36.05;;;27.40;;
4738;SDS011;2383;48.632;10.156;2022-08-19T06:39:12;35.80;;;27.17;;
4738;SDS011;2383;48.632;10.156;2022-08-19T06:43:18;36.63;;;28.90;;
4738;SDS011;2383;48.632;10.156;2022-08-19T06:47:20;35.08;;;27.45;;
4738;SDS011;2383;48.632;10.156;2022-08-19T06:51:28;40.72;;;30.33;;
4738;SDS011;2383;48.632;10.156;2022-08-19T06:55:32;37.90;;;29.33;;
4738;SDS011;2383;48.632;10.156;2022-08-19T06:59:36;39.95;;;29.95;;
4738;SDS011;2383;48.632;10.156;2022-08-19T07:03:38;36.03;;;29.20;;
4738;SDS011;2383;48.632;10.156;2022-08-19T07:07:40;43.03;;;31.27;;
4738;SDS011;2383;48.632;10.156;2022-08-19T07:11:48;40.38;;;29.83;;
4738;SDS011;2383;48.632;10.156;2022-08-19T07:15:52;45.38;;;33.97;;
4738;SDS011;2383;48.632;10.156;2022-08-19T07:19:54;44.45;;;32.35;;
4738;SDS011;2383;48.632;10.156;2022-08-19T07:23:56;43.00;;;31.70;;
4738;SDS011;2383;48.632;10.156;2022-08-19T07:28:05;38.20;;;29.95;;
4738;SDS011;2383;48.632;10.156;2022-08-19T07:32:24;39.97;;;30.33;;
4738;SDS011;2383;48.632;10.156;2022-08-19T07:36:28;40.35;;;29.40;;
4738;SDS011;2383;48.632;10.156;2022-08-19T07:40:33;38.05;;;30.50;;
4738;SDS011;2383;48.632;10.156;2022-08-19T07:44:35;36.33;;;29.63;;
4738;SDS011;2383;48.632;10.156;2022-08-19T07:48:37;38.85;;;30.00;;
4738;SDS011;2383;48.632;10.156;2022-08-19T07:52:40;41.38;;;32.03;;
4738;SDS011;2383;48.632;10.156;2022-08-19T07:56:48;39.08;;;30.20;;
4738;SDS011;2383;48.632;10.156;2022-08-19T08:00:52;43.33;;;32.08;;
4738;SDS011;2383;48.632;10.156;2022-08-19T08:04:55;40.40;;;31.40;;
4738;SDS011;2383;48.632;10.156;2022-08-19T08:09:16;36.88;;;29.90;;
4738;SDS011;2383;48.632;10.156;2022-08-19T08:13:24;42.97;;;31.85;;
4738;SDS011;2383;48.632;10.156;2022-08-19T08:17:27;38.95;;;30.30;;
4738;SDS011;2383;48.632;10.156;2022-08-19T08:21:50;38.60;;;29.25;;
4738;SDS011;2383;48.632;10.156;2022-08-19T08:25:54;38.97;;;30.60;;
4738;SDS011;2383;48.632;10.156;2022-08-19T08:29:58;42.25;;;30.33;;
4738;SDS011;2383;48.632;10.156;2022-08-19T08:34:03;41.10;;;30.48;;
4738;SDS011;2383;48.632;10.156;2022-08-19T08:38:05;35.50;;;28.65;;
4738;SDS011;2383;48.632;10.156;2022-08-19T08:42:08;38.28;;;30.98;;
4738;SDS011;2383;48.632;10.156;2022-08-19T08:46:30;40.45;;;30.15;;
4738;SDS011;2383;48.632;10.156;2022-08-19T08:50:46;40.70;;;30.77;;
4738;SDS011;2383;48.632;10.156;2022-08-19T08:54:52;41.05;;;29.73;;
4738;SDS011;2383;48.632;10.156;2022-08-19T08:59:03;36.85;;;28.33;;
4738;SDS011;2383;48.632;10.156;2022-08-19T09:03:17;36.80;;;28.63;;
4738;SDS011;2383;48.632;10.156;2022-08-19T09:12:21;36.15;;;29.73;;
4738;SDS011;2383;48.632;10.156;2022-08-19T09:16:43;40.85;;;31.30;;
4738;SDS011;2383;48.632;10.156;2022-08-19T09:20:45;40.28;;;31.98;;
4738;SDS011;2383;48.632;10.156;2022-08-19T09:24:49;39.47;;;30.77;;
4738;SDS011;2383;48.632;10.156;2022-08-19T09:28:53;38.00;;;30.35;;
4738;SDS011;2383;48.632;10.156;2022-08-19T09:32:58;37.90;;;28.70;;
4738;SDS011;2383;48.632;10.156;2022-08-19T09:37:01;41.00;;;31.10;;
4738;SDS011;2383;48.632;10.156;2022-08-19T09:41:04;39.58;;;31.35;;
4738;SDS011;2383;48.632;10.156;2022-08-19T09:45:08;41.83;;;31.13;;
4738;SDS011;2383;48.632;10.156;2022-08-19T09:49:24;43.15;;;32.80;;
4738;SDS011;2383;48.632;10.156;2022-08-19T09:53:26;46.08;;;34.63;;
4738;SDS011;2383;48.632;10.156;2022-08-19T09:57:28;45.55;;;34.17;;
4738;SDS011;2383;48.632;10.156;2022-08-19T10:01:31;51.85;;;36.72;;
4738;SDS011;2383;48.632;10.156;2022-08-19T10:05:33;47.92;;;35.47;;
4738;SDS011;2383;48.632;10.156;2022-08-19T10:09:50;46.67;;;33.92;;
4738;SDS011;2383;48.632;10.156;2022-08-19T10:13:52;47.13;;;36.00;;
4738;SDS011;2383;48.632;10.156;2022-08-19T10:17:54;49.10;;;35.42;;
4738;SDS011;2383;48.632;10.156;2022-08-19T10:21:56;47.25;;;35.70;;
4738;SDS011;2383;48.632;10.156;2022-08-19T10:26:00;49.55;;;34.65;;
4738;SDS011;2383;48.632;10.156;2022-08-19T10:30:02;44.50;;;34.72;;
4738;SDS011;2383;48.632;10.156;2022-08-19T10:34:10;46.50;;;35.17;;
4738;SDS011;2383;48.632;10.156;2022-08-19T10:38:27;45.90;;;35.25;;
4738;SDS011;2383;48.632;10.156;2022-08-19T10:42:33;45.00;;;35.67;;
4738;SDS011;2383;48.632;10.156;2022-08-19T10:46:37;48.40;;;35.05;;
4738;SDS011;2383;48.632;10.156;2022-08-19T10:50:48;48.28;;;35.08;;
4738;SDS011;2383;48.632;10.156;2022-08-19T10:55:08;46.90;;;35.22;;
4738;SDS011;2383;48.632;10.156;2022-08-19T10:59:30;47.88;;;33.88;;
4738;SDS011;2383;48.632;10.156;2022-08-19T11:03:36;49.08;;;34.40;;
4738;SDS011;2383;48.632;10.156;2022-08-19T11:07:38;44.38;;;33.72;;
4738;SDS011;2383;48.632;10.156;2022-08-19T11:11:41;47.45;;;33.75;;
4738;SDS011;2383;48.632;10.156;2022-08-19T11:15:43;42.92;;;32.75;;
4738;SDS011;2383;48.632;10.156;2022-08-19T11:19:46;38.47;;;31.67;;
4738;SDS011;2383;48.632;10.156;2022-08-19T11:23:50;41.88;;;31.95;;
4738;SDS011;2383;48.632;10.156;2022-08-19T11:27:53;39.67;;;31.23;;
4738;SDS011;2383;48.632;10.156;2022-08-19T11:31:55;43.15;;;31.60;;
4738;SDS011;2383;48.632;10.156;2022-08-19T11:35:58;43.22;;;32.78;;
4738;SDS011;2383;48.632;10.156;2022-08-19T11:40:00;40.33;;;31.42;;
4738;SDS011;2383;48.632;10.156;2022-08-19T11:44:03;40.72;;;31.73;;
4738;SDS011;2383;48.632;10.156;2022-08-19T11:48:05;38.58;;;30.92;;
4738;SDS011;2383;48.632;10.156;2022-08-19T11:52:07;41.53;;;31.52;;
4738;SDS011;2383;48.632;10.156;2022-08-19T11:56:10;37.05;;;29.58;;
4738;SDS011;2383;48.632;10.156;2022-08-19T12:00:12;37.40;;;30.15;;
4738;SDS011;2383;48.632;10.156;2022-08-19T12:04:15;38.50;;;29.30;;
4738;SDS011;2383;48.632;10.156;2022-08-19T12:08:18;34.40;;;27.48;;
4738;SDS011;2383;48.632;10.156;2022-08-19T12:12:21;32.35;;;26.40;;
4738;SDS011;2383;48.632;10.156;2022-08-19T12:16:25;34.25;;;27.05;;
4738;SDS011;2383;48.632;10.156;2022-08-19T12:20:29;31.27;;;23.40;;
4738;SDS011;2383;48.632;10.156;2022-08-19T12:24:31;27.73;;;23.02;;
4738;SDS011;2383;48.632;10.156;2022-08-19T12:28:33;25.27;;;21.73;;
4738;SDS011;2383;48.632;10.156;2022-08-19T12:32:35;25.27;;;19.58;;
4738;SDS011;2383;48.632;10.156;2022-08-19T12:36:37;21.27;;;18.35;;
4738;SDS011;2383;48.632;10.156;2022-08-19T12:40:39;20.45;;;15.95;;
4738;SDS011;2383;48.632;10.156;2022-08-19T12:44:42;16.15;;;14.45;;
4738;SDS011;2383;48.632;10.156;2022-08-19T12:48:44;16.40;;;13.45;;
4738;SDS011;2383;48.632;10.156;2022-08-19T12:52:46;14.57;;;12.65;;
4738;SDS011;2383;48.632;10.156;2022-08-19T12:56:49;14.85;;;13.35;;
4738;SDS011;2383;48.632;10.156;2022-08-19T13:00:50;16.92;;;14.23;;
4738;SDS011;2383;48.632;10.156;2022-08-19T13:04:53;16.90;;;13.80;;
4738;SDS011;2383;48.632;10.156;2022-08-19T13:08:54;15.90;;;14.20;;
4738;SDS011;2383;48.632;10.156;2022-08-19T13:13:00;18.98;;;15.98;;
4738;SDS011;2383;48.632;10.156;2022-08-19T13:17:06;17.10;;;14.60;;
4738;SDS011;2383;48.632;10.156;2022-08-19T13:21:09;17.60;;;15.25;;
4738;SDS011;2383;48.632;10.156;2022-08-19T13:25:14;17.38;;;14.27;;
4738;SDS011;2383;48.632;10.156;2022-08-19T13:29:18;14.45;;;12.90;;
4738;SDS011;2383;48.632;10.156;2022-08-19T13:33:43;15.55;;;13.77;;
4738;SDS011;2383;48.632;10.156;2022-08-19T13:37:46;16.58;;;12.30;;
4738;SDS011;2383;48.632;10.156;2022-08-19T13:41:48;14.48;;;12.98;;
4738;SDS011;2383;48.632;10.156;2022-08-19T13:45:51;15.43;;;12.13;;
4738;SDS011;2383;48.632;10.156;2022-08-19T13:49:56;12.60;;;10.88;;
4738;SDS011;2383;48.632;10.156;2022-08-19T13:53:58;13.75;;;11.10;;
4738;SDS011;2383;48.632;10.156;2022-08-19T13:58:00;15.65;;;12.30;;
4738;SDS011;2383;48.632;10.156;2022-08-19T14:02:05;15.85;;;11.57;;
4738;SDS011;2383;48.632;10.156;2022-08-19T14:06:06;13.88;;;12.25;;
4738;SDS011;2383;48.632;10.156;2022-08-19T14:10:11;13.18;;;11.57;;
4738;SDS011;2383;48.632;10.156;2022-08-19T14:14:14;18.60;;;14.00;;
4738;SDS011;2383;48.632;10.156;2022-08-19T14:18:17;17.67;;;13.73;;
4738;SDS011;2383;48.632;10.156;2022-08-19T14:22:19;17.88;;;13.73;;
4738;SDS011;2383;48.632;10.156;2022-08-19T14:26:22;16.15;;;13.95;;
4738;SDS011;2383;48.632;10.156;2022-08-19T14:30:26;16.77;;;14.98;;
4738;SDS011;2383;48.632;10.156;2022-08-19T14:34:30;18.20;;;15.18;;
4738;SDS011;2383;48.632;10.156;2022-08-19T14:38:32;25.20;;;22.52;;
4738;SDS011;2383;48.632;10.156;2022-08-19T14:42:34;18.70;;;15.98;;
4738;SDS011;2383;48.632;10.156;2022-08-19T14:46:36;18.02;;;16.15;;
4738;SDS011;2383;48.632;10.156;2022-08-19T14:50:37;17.75;;;15.45;;
4738;SDS011;2383;48.632;10.156;2022-08-19T14:54:39;19.90;;;15.77;;
4738;SDS011;2383;48.632;10.156;2022-08-19T14:58:41;22.65;;;16.52;;
4738;SDS011;2383;48.632;10.156;2022-08-19T15:02:44;27.63;;;17.08;;
4738;SDS011;2383;48.632;10.156;2022-08-19T15:06:46;23.65;;;16.70;;
4738;SDS011;2383;48.632;10.156;2022-08-19T15:10:47;23.23;;;17.70;;
4738;SDS011;2383;48.632;10.156;2022-08-19T15:14:50;23.17;;;18.20;;
4738;SDS011;2383;48.632;10.156;2022-08-19T15:18:57;20.17;;;17.02;;
4738;SDS011;2383;48.632;10.156;2022-08-19T15:23:01;24.40;;;19.13;;
4738;SDS011;2383;48.632;10.156;2022-08-19T15:27:02;19.60;;;17.23;;
4738;SDS011;2383;48.632;10.156;2022-08-19T15:31:06;21.13;;;17.95;;
4738;SDS011;2383;48.632;10.156;2022-08-19T15:35:19;22.42;;;17.45;;
4738;SDS011;2383;48.632;10.156;2022-08-19T15:39:21;24.15;;;18.50;;
4738;SDS011;2383;48.632;10.156;2022-08-19T15:43:23;22.83;;;19.45;;
4738;SDS011;2383;48.632;10.156;2022-08-19T15:47:25;21.30;;;18.95;;
4738;SDS011;2383;48.632;10.156;2022-08-19T15:51:36;25.90;;;18.50;;
4738;SDS011;2383;48.632;10.156;2022-08-19T15:55:43;20.85;;;17.70;;
4738;SDS011;2383;48.632;10.156;2022-08-19T15:59:46;22.55;;;19.20;;
4738;SDS011;2383;48.632;10.156;2022-08-19T16:04:07;23.90;;;18.38;;
4738;SDS011;2383;48.632;10.156;2022-08-19T16:08:27;24.48;;;18.58;;
4738;SDS011;2383;48.632;10.156;2022-08-19T16:12:29;22.83;;;20.05;;
4738;SDS011;2383;48.632;10.156;2022-08-19T16:16:32;21.15;;;18.52;;
4738;SDS011;2383;48.632;10.156;2022-08-19T16:20:35;19.92;;;17.23;;
4738;SDS011;2383;48.632;10.156;2022-08-19T16:24:36;21.08;;;18.38;;
4738;SDS011;2383;48.632;10.156;2022-08-19T16:28:39;19.58;;;17.58;;
4738;SDS011;2383;48.632;10.156;2022-08-19T16:32:42;21.13;;;17.77;;
4738;SDS011;2383;48.632;10.156;2022-08-19T16:36:44;19.05;;;16.55;;
4738;SDS011;2383;48.632;10.156;2022-08-19T16:40:45;19.67;;;16.95;;
4738;SDS011;2383;48.632;10.156;2022-08-19T16:44:49;18.42;;;15.63;;
4738;SDS011;2383;48.632;10.156;2022-08-19T16:48:51;18.30;;;16.42;;
4738;SDS011;2383;48.632;10.156;2022-08-19T16:52:53;17.27;;;15.02;;
4738;SDS011;2383;48.632;10.156;2022-08-19T16:56:57;17.20;;;15.38;;
4738;SDS011;2383;48.632;10.156;2022-08-19T17:01:04;17.85;;;15.95;;
4738;SDS011;2383;48.632;10.156;2022-08-19T17:05:07;18.38;;;15.93;;
4738;SDS011;2383;48.632;10.156;2022-08-19T17:09:10;18.10;;;16.08;;
4738;SDS011;2383;48.632;10.156;2022-08-19T17:13:12;22.80;;;18.40;;
4738;SDS011;2383;48.632;10.156;2022-08-19T17:17:15;20.85;;;18.65;;
4738;SDS011;2383;48.632;10.156;2022-08-19T17:21:17;21.98;;;17.70;;
4738;SDS011;2383;48.632;10.156;2022-08-19T17:25:20;23.35;;;17.48;;
4738;SDS011;2383;48.632;10.156;2022-08-19T17:29:22;24.85;;;20.10;;
4738;SDS011;2383;48.632;10.156;2022-08-19T17:33:24;21.00;;;17.85;;
4738;SDS011;2383;48.632;10.156;2022-08-19T17:37:26;21.27;;;17.95;;
4738;SDS011;2383;48.632;10.156;2022-08-19T17:41:28;28.00;;;20.30;;
4738;SDS011;2383;48.632;10.156;2022-08-19T17:45:30;24.60;;;20.50;;
4738;SDS011;2383;48.632;10.156;2022-08-19T17:49:32;25.92;;;21.25;;
4738;SDS011;2383;48.632;10.156;2022-08-19T17:53:36;22.63;;;19.75;;
4738;SDS011;2383;48.632;10.156;2022-08-19T17:57:38;21.35;;;19.05;;
4738;SDS011;2383;48.632;10.156;2022-08-19T18:01:46;22.65;;;20.17;;
4738;SDS011;2383;48.632;10.156;2022-08-19T18:05:54;26.13;;;21.30;;
4738;SDS011;2383;48.632;10.156;2022-08-19T18:09:56;23.50;;;20.65;;
4738;SDS011;2383;48.632;10.156;2022-08-19T18:14:02;22.90;;;20.05;;
4738;SDS011;2383;48.632;10.156;2022-08-19T18:18:03;23.20;;;20.55;;
4738;SDS011;2383;48.632;10.156;2022-08-19T18:22:23;21.25;;;18.75;;
4738;SDS011;2383;48.632;10.156;2022-08-19T18:26:35;20.75;;;17.95;;
4738;SDS011;2383;48.632;10.156;2022-08-19T18:30:37;22.05;;;19.10;;
4738;SDS011;2383;48.632;10.156;2022-08-19T18:34:40;24.45;;;21.13;;
4738;SDS011;2383;48.632;10.156;2022-08-19T18:38:43;24.95;;;20.42;;
4738;SDS011;2383;48.632;10.156;2022-08-19T18:43:08;25.25;;;20.80;;
4738;SDS011;2383;48.632;10.156;2022-08-19T18:47:19;23.02;;;20.52;;
4738;SDS011;2383;48.632;10.156;2022-08-19T18:51:39;23.45;;;20.88;;
4738;SDS011;2383;48.632;10.156;2022-08-19T18:55:41;24.40;;;21.73;;
4738;SDS011;2383;48.632;10.156;2022-08-19T18:59:43;28.02;;;22.08;;
4738;SDS011;2383;48.632;10.156;2022-08-19T19:03:49;26.48;;;22.80;;
4738;SDS011;2383;48.632;10.156;2022-08-19T19:07:53;29.55;;;23.48;;
4738;SDS011;2383;48.632;10.156;2022-08-19T19:11:56;28.73;;;24.52;;
4738;SDS011;2383;48.632;10.156;2022-08-19T19:16:00;25.80;;;22.55;;
4738;SDS011;2383;48.632;10.156;2022-08-19T19:20:03;28.48;;;25.10;;
4738;SDS011;2383;48.632;10.156;2022-08-19T19:24:06;28.63;;;23.77;;
4738;SDS011;2383;48.632;10.156;2022-08-19T19:28:09;35.92;;;28.02;;
4738;SDS011;2383;48.632;10.156;2022-08-19T19:32:18;34.58;;;28.15;;
4738;SDS011;2383;48.632;10.156;2022-08-19T19:36:23;31.95;;;26.60;;
4738;SDS011;2383;48.632;10.156;2022-08-19T19:40:25;35.05;;;29.13;;
4738;SDS011;2383;48.632;10.156;2022-08-19T19:44:28;39.88;;;31.98;;
4738;SDS011;2383;48.632;10.156;2022-08-19T19:48:32;44.00;;;34.10;;
4738;SDS011;2383;48.632;10.156;2022-08-19T19:52:35;44.90;;;35.22;;
4738;SDS011;2383;48.632;10.156;2022-08-19T19:56:39;53.95;;;38.90;;
4738;SDS011;2383;48.632;10.156;2022-08-19T20:00:43;46.25;;;38.85;;
4738;SDS011;2383;48.632;10.156;2022-08-19T20:04:46;54.67;;;39.88;;
4738;SDS011;2383;48.632;10.156;2022-08-19T20:08:48;50.83;;;40.25;;
4738;SDS011;2383;48.632;10.156;2022-08-19T20:13:08;58.45;;;44.65;;
4738;SDS011;2383;48.632;10.156;2022-08-19T20:17:11;61.05;;;44.75;;
4738;SDS011;2383;48.632;10.156;2022-08-19T20:21:13;67.68;;;46.95;;
4738;SDS011;2383;48.632;10.156;2022-08-19T20:25:16;66.78;;;49.25;;
4738;SDS011;2383;48.632;10.156;2022-08-19T20:29:22;65.95;;;49.10;;
4738;SDS011;2383;48.632;10.156;2022-08-19T20:33:40;62.83;;;46.88;;
4738;SDS011;2383;48.632;10.156;2022-08-19T20:37:42;61.67;;;48.55;;
4738;SDS011;2383;48.632;10.156;2022-08-19T20:41:44;73.65;;;52.78;;
4738;SDS011;2383;48.632;10.156;2022-08-19T20:45:46;67.60;;;50.67;;
4738;SDS011;2383;48.632;10.156;2022-08-19T20:49:48;67.85;;;51.90;;
4738;SDS011;2383;48.632;10.156;2022-08-19T20:53:51;63.85;;;48.67;;
4738;SDS011;2383;48.632;10.156;2022-08-19T20:57:53;69.55;;;50.17;;
4738;SDS011;2383;48.632;10.156;2022-08-19T21:01:55;67.63;;;51.60;;
4738;SDS011;2383;48.632;10.156;2022-08-19T21:05:57;66.78;;;50.40;;
4738;SDS011;2383;48.632;10.156;2022-08-19T21:09:59;79.13;;;53.78;;
4738;SDS011;2383;48.632;10.156;2022-08-19T21:14:01;75.15;;;56.15;;
4738;SDS011;2383;48.632;10.156;2022-08-19T21:18:03;74.55;;;55.80;;
4738;SDS011;2383;48.632;10.156;2022-08-19T21:22:05;61.97;;;48.70;;
4738;SDS011;2383;48.632;10.156;2022-08-19T21:26:07;73.70;;;53.22;;
4738;SDS011;2383;48.632;10.156;2022-08-19T21:30:09;63.20;;;48.00;;
4738;SDS011;2383;48.632;10.156;2022-08-19T21:34:12;78.82;;;54.35;;
4738;SDS011;2383;48.632;10.156;2022-08-19T21:38:14;78.90;;;55.40;;
4738;SDS011;2383;48.632;10.156;2022-08-19T21:42:15;65.65;;;52.08;;
4738;SDS011;2383;48.632;10.156;2022-08-19T21:46:17;75.07;;;55.50;;
4738;SDS011;2383;48.632;10.156;2022-08-19T21:50:19;60.65;;;49.00;;
4738;SDS011;2383;48.632;10.156;2022-08-19T21:54:27;70.68;;;51.25;;
4738;SDS011;2383;48.632;10.156;2022-08-19T21:58:38;74.07;;;53.25;;
4738;SDS011;2383;48.632;10.156;2022-08-19T22:02:41;73.68;;;54.10;;
4738;SDS011;2383;48.632;10.156;2022-08-19T22:06:43;70.55;;;51.45;;
4738;SDS011;2383;48.632;10.156;2022-08-19T22:10:46;66.03;;;49.83;;
4738;SDS011;2383;48.632;10.156;2022-08-19T22:14:50;71.05;;;52.30;;
4738;SDS011;2383;48.632;10.156;2022-08-19T22:18:52;65.50;;;49.50;;
4738;SDS011;2383;48.632;10.156;2022-08-19T22:22:59;67.55;;;49.83;;
4738;SDS011;2383;48.632;10.156;2022-08-19T22:27:02;58.60;;;46.97;;
4738;SDS011;2383;48.632;10.156;2022-08-19T22:31:09;65.72;;;48.70;;
4738;SDS011;2383;48.632;10.156;2022-08-19T22:35:11;58.03;;;44.65;;
4738;SDS011;2383;48.632;10.156;2022-08-19T22:39:13;57.47;;;43.97;;
4738;SDS011;2383;48.632;10.156;2022-08-19T22:43:16;60.53;;;45.97;;
4738;SDS011;2383;48.632;10.156;2022-08-19T22:47:19;67.93;;;49.33;;
4738;SDS011;2383;48.632;10.156;2022-08-19T22:51:26;59.55;;;45.80;;
4738;SDS011;2383;48.632;10.156;2022-08-19T22:55:46;56.75;;;44.58;;
4738;SDS011;2383;48.632;10.156;2022-08-19T22:59:48;58.20;;;44.05;;
4738;SDS011;2383;48.632;10.156;2022-08-19T23:03:51;58.20;;;43.72;;
4738;SDS011;2383;48.632;10.156;2022-08-19T23:07:55;55.47;;;43.00;;
4738;SDS011;2383;48.632;10.156;2022-08-19T23:11:58;51.60;;;40.58;;
4738;SDS011;2383;48.632;10.156;2022-08-19T23:16:00;55.92;;;42.72;;
4738;SDS011;2383;48.632;10.156;2022-08-19T23:20:03;59.22;;;43.28;;
4738;SDS011;2383;48.632;10.156;2022-08-19T23:24:06;56.33;;;43.90;;
4738;SDS011;2383;48.632;10.156;2022-08-19T23:28:09;57.75;;;41.72;;
4738;SDS011;2383;48.632;10.156;2022-08-19T23:32:33;56.80;;;43.20;;
4738;SDS011;2383;48.632;10.156;2022-08-19T23:36:35;52.72;;;41.88;;
4738;SDS011;2383;48.632;10.156;2022-08-19T23:40:37;55.28;;;42.08;;
4738;SDS011;2383;48.632;10.156;2022-08-19T23:44:40;57.42;;;43.30;;
4738;SDS011;2383;48.632;10.156;2022-08-19T23:48:53;47.72;;;38.55;;
4738;SDS011;2383;48.632;10.156;2022-08-19T23:52:56;49.35;;;39.63;;
4738;SDS011;2383;48.632;10.156;2022-08-19T23:56:59;49.42;;;34.75;;
